Time;durP1;ratioP1;P1;durP2;ratioP2;P2;SDS_P1;SDS_P2;PMS_P1;PMS_P2;Temp;Humidity;BMP_temperature;BMP_pressure;BME280_temperature;BME280_humidity;BME280_pressure;Samples;Min_cycle;Max_cycle;Signal;HPM_P1;HPM_P2
2024/01/21 00:01:06;;;;;;;8.98;4.60;;;;;;;;;;4997024;28;20049;-79
2024/01/21 00:03:31;;;;;;;11.25;5.10;;;;;;;;;;4997973;28;20030;-80
2024/01/21 00:05:57;;;;;;;7.95;4.47;;;;;;;;;;4997601;28;20080;-78
2024/01/21 00:08:22;;;;;;;13.65;5.03;;;;;;;;;;4997167;28;20055;-80
2024/01/21 00:10:47;;;;;;;9.77;4.85;;;;;;;;;;4997553;28;20064;-77
2024/01/21 00:13:12;;;;;;;10.43;4.60;;;;;;;;;;4997087;28;20022;-79
2024/01/21 00:15:38;;;;;;;10.52;5.22;;;;;;;;;;4979913;28;20026;-79
2024/01/21 00:18:03;;;;;;;10.77;4.47;;;;;;;;;;4996980;28;20226;-80
2024/01/21 00:20:30;;;;;;;10.23;4.57;;;;;;;;;;4979036;28;20389;-77
2024/01/21 00:22:57;;;;;;;11.05;4.57;;;;;;;;;;4997319;28;20037;-80
2024/01/21 00:25:22;;;;;;;9.45;4.82;;;;;;;;;;4996943;28;20095;-79
2024/01/21 00:27:47;;;;;;;11.52;4.68;;;;;;;;;;4996483;28;20023;-79
2024/01/21 00:30:13;;;;;;;9.70;3.90;;;;;;;;;;4997518;28;20018;-79
2024/01/21 00:32:38;;;;;;;9.82;4.20;;;;;;;;;;4997354;28;20040;-79
2024/01/21 00:35:04;;;;;;;10.07;4.90;;;;;;;;;;4996844;28;20058;-79
2024/01/21 00:37:29;;;;;;;8.70;4.70;;;;;;;;;;4996370;28;20030;-78
2024/01/21 00:39:54;;;;;;;12.98;4.68;;;;;;;;;;4996861;28;20035;-79
2024/01/21 00:42:20;;;;;;;13.18;5.40;;;;;;;;;;4996905;28;20034;-79
2024/01/21 00:44:45;;;;;;;9.95;4.70;;;;;;;;;;4996754;28;20026;-79
2024/01/21 00:47:10;;;;;;;13.27;5.00;;;;;;;;;;4996499;28;20030;-80
2024/01/21 00:49:39;;;;;;;10.57;5.28;;;;;;;;;;4996140;28;20034;-79
2024/01/21 00:52:04;;;;;;;11.55;4.90;;;;;;;;;;4978424;28;20097;-78
2024/01/21 00:54:30;;;;;;;8.38;4.18;;;;;;;;;;4995361;28;20089;-79
2024/01/21 00:56:55;;;;;;;8.77;4.25;;;;;;;;;;4994322;28;20486;-79
2024/01/21 00:59:20;;;;;;;8.07;4.25;;;;;;;;;;4996633;28;20541;-78
2024/01/21 01:01:45;;;;;;;11.48;4.65;;;;;;;;;;4996766;28;20513;-79
2024/01/21 01:04:10;;;;;;;8.57;4.57;;;;;;;;;;4997003;28;20402;-79
2024/01/21 01:06:36;;;;;;;13.95;5.60;;;;;;;;;;4996123;28;20374;-78
2024/01/21 01:09:01;;;;;;;11.23;4.80;;;;;;;;;;4977775;28;20101;-78
2024/01/21 01:11:27;;;;;;;11.13;5.07;;;;;;;;;;4996137;28;20026;-79
2024/01/21 01:13:53;;;;;;;11.32;5.50;;;;;;;;;;4999325;28;20508;-79
2024/01/21 01:16:18;;;;;;;9.55;4.75;;;;;;;;;;4982592;28;20030;-79
2024/01/21 01:18:43;;;;;;;11.05;4.88;;;;;;;;;;5000115;28;20109;-78
2024/01/21 01:21:12;;;;;;;13.35;5.43;;;;;;;;;;4999458;28;20210;-78
2024/01/21 01:23:37;;;;;;;11.30;5.25;;;;;;;;;;5000114;28;20037;-79
2024/01/21 01:26:02;;;;;;;10.85;4.68;;;;;;;;;;5000464;28;20100;-79
2024/01/21 01:28:27;;;;;;;10.48;5.18;;;;;;;;;;4999234;28;20064;-79
2024/01/21 01:30:53;;;;;;;9.57;4.45;;;;;;;;;;5000405;28;20018;-78
2024/01/21 01:33:18;;;;;;;9.20;4.70;;;;;;;;;;5000358;28;20034;-78
2024/01/21 01:35:43;;;;;;;9.80;5.10;;;;;;;;;;5000268;28;20040;-79
2024/01/21 01:38:12;;;;;;;11.00;4.63;;;;;;;;;;4982786;28;20452;-79
2024/01/21 01:40:37;;;;;;;11.93;4.55;;;;;;;;;;4982593;28;20029;-79
2024/01/21 01:43:02;;;;;;;10.70;4.13;;;;;;;;;;5000065;28;20027;-79
2024/01/21 01:45:29;;;;;;;9.82;4.47;;;;;;;;;;4999991;28;20088;-79
2024/01/21 01:47:54;;;;;;;9.75;4.28;;;;;;;;;;4999726;28;20033;-79
2024/01/21 01:50:20;;;;;;;12.65;5.10;;;;;;;;;;4982913;28;20022;-79
2024/01/21 01:52:46;;;;;;;11.80;5.20;;;;;;;;;;5000864;28;20402;-80
2024/01/21 01:55:12;;;;;;;10.80;5.03;;;;;;;;;;5001977;28;20022;-79
2024/01/21 01:57:37;;;;;;;10.07;5.13;;;;;;;;;;4986057;28;20026;-79
2024/01/21 02:00:06;;;;;;;13.38;5.70;;;;;;;;;;4984862;28;20033;-78
2024/01/21 02:02:32;;;;;;;11.05;4.85;;;;;;;;;;5001133;28;20069;-79
2024/01/21 02:05:00;;;;;;;18.75;5.80;;;;;;;;;;4999886;28;20494;-79
2024/01/21 02:07:25;;;;;;;15.98;5.65;;;;;;;;;;4999961;28;20028;-79
2024/01/21 02:09:50;;;;;;;17.55;5.43;;;;;;;;;;4999877;28;20057;-78
2024/01/21 02:12:18;;;;;;;11.38;5.20;;;;;;;;;;4999468;28;20022;-79
2024/01/21 02:14:43;;;;;;;9.95;5.15;;;;;;;;;;4998779;28;20047;-79
2024/01/21 02:17:08;;;;;;;11.45;5.50;;;;;;;;;;4981985;28;20034;-79
2024/01/21 02:19:33;;;;;;;13.82;5.68;;;;;;;;;;4999298;28;20088;-80
2024/01/21 02:21:59;;;;;;;10.43;5.43;;;;;;;;;;4982309;28;20125;-79
2024/01/21 02:24:31;;;;;;;15.77;5.78;;;;;;;;;;4981501;28;20066;-79
2024/01/21 02:26:57;;;;;;;11.85;5.32;;;;;;;;;;5000917;28;20030;-79
2024/01/21 02:29:22;;;;;;;12.95;5.55;;;;;;;;;;5000014;28;20129;-80
2024/01/21 02:31:48;;;;;;;12.63;5.47;;;;;;;;;;4998767;28;20029;-79
2024/01/21 02:34:13;;;;;;;10.02;4.90;;;;;;;;;;4981486;28;20034;-79
2024/01/21 02:36:38;;;;;;;12.80;5.30;;;;;;;;;;4982891;28;20030;-79
2024/01/21 02:39:03;;;;;;;11.75;5.55;;;;;;;;;;4982330;28;20113;-78
2024/01/21 02:41:29;;;;;;;12.55;4.93;;;;;;;;;;5001495;28;20057;-79
2024/01/21 02:43:54;;;;;;;13.25;5.13;;;;;;;;;;5001588;28;20027;-79
2024/01/21 02:46:19;;;;;;;15.18;5.88;;;;;;;;;;5002121;28;20026;-79
2024/01/21 02:48:44;;;;;;;11.90;5.40;;;;;;;;;;5002354;28;20421;-79
2024/01/21 02:51:13;;;;;;;15.00;5.60;;;;;;;;;;5001245;28;20081;-80
2024/01/21 02:53:39;;;;;;;11.60;5.57;;;;;;;;;;5000117;28;20117;-80
2024/01/21 02:56:04;;;;;;;12.40;5.18;;;;;;;;;;4983036;28;20456;-80
2024/01/21 02:58:30;;;;;;;16.88;5.32;;;;;;;;;;5000269;28;20041;-81
2024/01/21 03:00:55;;;;;;;12.85;5.03;;;;;;;;;;4999720;28;20135;-79
2024/01/21 03:03:20;;;;;;;11.65;5.13;;;;;;;;;;5001573;28;20038;-79
2024/01/21 03:05:45;;;;;;;12.32;5.35;;;;;;;;;;5003045;28;20030;-78
2024/01/21 03:08:11;;;;;;;11.13;4.38;;;;;;;;;;4998953;28;20018;-81
2024/01/21 03:10:36;;;;;;;17.90;5.65;;;;;;;;;;4999765;28;20022;-80
2024/01/21 03:13:02;;;;;;;13.52;6.35;;;;;;;;;;5000249;28;20449;-79
2024/01/21 03:15:27;;;;;;;13.30;5.47;;;;;;;;;;5000368;28;20018;-79
2024/01/21 03:17:52;;;;;;;10.25;5.10;;;;;;;;;;5000066;28;20026;-80
2024/01/21 03:20:17;;;;;;;10.93;5.05;;;;;;;;;;4982129;28;20465;-80
2024/01/21 03:22:43;;;;;;;12.38;5.00;;;;;;;;;;4999488;28;20486;-79
2024/01/21 03:25:08;;;;;;;11.45;5.03;;;;;;;;;;4997899;28;20512;-77
2024/01/21 03:27:33;;;;;;;15.18;5.70;;;;;;;;;;4983550;28;20042;-78
2024/01/21 03:29:58;;;;;;;9.38;4.53;;;;;;;;;;5002408;28;20022;-78
2024/01/21 03:32:23;;;;;;;9.18;4.90;;;;;;;;;;5001004;28;20133;-80
2024/01/21 03:34:51;;;;;;;11.93;4.78;;;;;;;;;;5000629;28;20078;-79
2024/01/21 03:37:18;;;;;;;8.52;5.05;;;;;;;;;;5002458;28;20023;-79
2024/01/21 03:39:43;;;;;;;11.60;5.15;;;;;;;;;;4983864;28;20045;-79
2024/01/21 03:42:08;;;;;;;16.38;5.88;;;;;;;;;;5000148;28;20440;-79
2024/01/21 03:44:33;;;;;;;9.45;4.82;;;;;;;;;;5000868;28;20452;-79
2024/01/21 03:47:00;;;;;;;13.00;5.47;;;;;;;;;;5000494;28;20026;-79
2024/01/21 03:49:25;;;;;;;12.80;5.53;;;;;;;;;;5001312;28;20049;-79
2024/01/21 03:51:50;;;;;;;11.55;5.78;;;;;;;;;;5000170;28;20085;-79
2024/01/21 03:54:15;;;;;;;9.70;5.07;;;;;;;;;;5000016;28;20022;-79
2024/01/21 03:56:41;;;;;;;11.40;5.05;;;;;;;;;;4999635;28;20030;-79
2024/01/21 03:59:06;;;;;;;8.82;4.85;;;;;;;;;;4999173;28;20030;-79
2024/01/21 04:01:31;;;;;;;15.02;5.13;;;;;;;;;;4999681;28;20072;-80
2024/01/21 04:03:56;;;;;;;12.05;5.13;;;;;;;;;;5000307;28;20113;-80
2024/01/21 04:06:22;;;;;;;16.80;5.95;;;;;;;;;;4982357;28;20084;-80
2024/01/21 04:08:47;;;;;;;12.32;4.65;;;;;;;;;;5000031;28;20029;-80
2024/01/21 04:11:12;;;;;;;9.85;4.90;;;;;;;;;;5000063;28;20026;-80
2024/01/21 04:13:37;;;;;;;11.73;5.18;;;;;;;;;;4983164;28;20114;-80
2024/01/21 04:16:03;;;;;;;13.68;5.53;;;;;;;;;;4998604;28;20079;-78
2024/01/21 04:18:28;;;;;;;11.13;4.93;;;;;;;;;;4997753;28;20109;-80
2024/01/21 04:20:53;;;;;;;12.63;4.97;;;;;;;;;;4997128;28;20138;-80
2024/01/21 04:23:19;;;;;;;8.75;4.55;;;;;;;;;;4997447;28;20026;-79
2024/01/21 04:25:44;;;;;;;13.65;5.40;;;;;;;;;;4996651;28;20030;-79
2024/01/21 04:28:09;;;;;;;10.80;5.22;;;;;;;;;;4996574;28;20062;-79
2024/01/21 04:30:35;;;;;;;11.40;5.13;;;;;;;;;;4996269;28;20073;-79
2024/01/21 04:33:00;;;;;;;10.52;5.20;;;;;;;;;;4996057;28;20030;-79
2024/01/21 04:35:26;;;;;;;12.65;4.63;;;;;;;;;;4995104;28;20096;-80
2024/01/21 04:37:51;;;;;;;9.68;5.10;;;;;;;;;;4995866;28;20038;-80
2024/01/21 04:40:16;;;;;;;11.38;5.22;;;;;;;;;;4995813;28;20025;-80
2024/01/21 04:42:41;;;;;;;18.45;5.35;;;;;;;;;;4996303;28;20138;-80
2024/01/21 04:45:07;;;;;;;13.40;4.78;;;;;;;;;;4996077;28;20030;-80
2024/01/21 04:47:33;;;;;;;12.13;5.30;;;;;;;;;;4995964;28;20023;-80
2024/01/21 04:49:58;;;;;;;9.77;4.85;;;;;;;;;;4996259;28;20026;-80
2024/01/21 04:52:23;;;;;;;10.00;4.47;;;;;;;;;;4995973;28;20086;-79
2024/01/21 04:54:48;;;;;;;8.82;4.53;;;;;;;;;;4995549;28;20085;-79
2024/01/21 04:57:14;;;;;;;8.88;4.38;;;;;;;;;;4994004;28;20410;-79
2024/01/21 04:59:39;;;;;;;11.00;4.80;;;;;;;;;;4994094;28;20397;-79
2024/01/21 05:02:04;;;;;;;12.10;5.00;;;;;;;;;;4995803;28;20038;-79
2024/01/21 05:04:29;;;;;;;11.48;5.32;;;;;;;;;;4995606;28;20034;-80
2024/01/21 05:06:55;;;;;;;10.23;5.00;;;;;;;;;;4995400;28;20029;-80
2024/01/21 05:09:20;;;;;;;11.65;4.72;;;;;;;;;;4977738;28;20508;-77
2024/01/21 05:11:45;;;;;;;9.13;4.43;;;;;;;;;;4978561;28;20462;-78
2024/01/21 05:14:10;;;;;;;9.20;4.82;;;;;;;;;;4995246;28;20508;-79
2024/01/21 05:16:39;;;;;;;13.52;4.82;;;;;;;;;;4995567;28;20486;-79
2024/01/21 05:19:04;;;;;;;10.13;4.60;;;;;;;;;;4995638;28;20023;-78
2024/01/21 05:21:29;;;;;;;8.38;3.97;;;;;;;;;;4978842;28;20029;-79
2024/01/21 05:23:55;;;;;;;9.15;4.43;;;;;;;;;;4995801;28;20026;-79
2024/01/21 05:26:20;;;;;;;12.13;4.35;;;;;;;;;;4995011;28;20073;-79
2024/01/21 05:28:46;;;;;;;10.95;4.35;;;;;;;;;;4995208;28;20157;-79
2024/01/21 05:31:11;;;;;;;12.25;5.22;;;;;;;;;;4993566;28;20014;-79
2024/01/21 05:33:38;;;;;;;9.93;4.35;;;;;;;;;;4995733;28;20493;-79
2024/01/21 05:36:03;;;;;;;12.60;5.13;;;;;;;;;;4996502;28;20041;-79
2024/01/21 05:38:29;;;;;;;7.65;4.07;;;;;;;;;;4996530;28;20030;-79
2024/01/21 05:40:54;;;;;;;13.95;4.95;;;;;;;;;;4994386;28;20077;-79
2024/01/21 05:43:19;;;;;;;10.75;5.38;;;;;;;;;;4993366;28;20038;-80
2024/01/21 05:45:44;;;;;;;9.57;4.88;;;;;;;;;;4995104;28;20069;-80
2024/01/21 05:48:09;;;;;;;9.00;4.38;;;;;;;;;;4993877;28;20023;-79
2024/01/21 05:50:35;;;;;;;12.43;5.18;;;;;;;;;;4976961;28;20080;-79
2024/01/21 05:53:00;;;;;;;13.52;5.05;;;;;;;;;;4996013;28;20389;-80
2024/01/21 05:55:25;;;;;;;11.68;4.45;;;;;;;;;;4995878;28;20088;-79
2024/01/21 05:57:50;;;;;;;13.23;4.25;;;;;;;;;;4995250;28;20409;-80
2024/01/21 06:00:16;;;;;;;11.07;5.05;;;;;;;;;;4997135;28;20030;-77
2024/01/21 06:02:42;;;;;;;12.38;5.18;;;;;;;;;;4998835;28;20031;-80
2024/01/21 06:05:07;;;;;;;10.80;4.65;;;;;;;;;;5000456;28;20449;-79
2024/01/21 06:07:33;;;;;;;10.80;5.05;;;;;;;;;;5000589;28;20327;-78
2024/01/21 06:09:58;;;;;;;10.50;4.75;;;;;;;;;;4998890;28;20022;-80
2024/01/21 06:12:23;;;;;;;10.35;4.70;;;;;;;;;;4999127;28;20022;-78
2024/01/21 06:14:48;;;;;;;10.93;4.25;;;;;;;;;;5000875;28;20493;-79
2024/01/21 06:17:14;;;;;;;7.80;4.22;;;;;;;;;;5000967;28;20032;-79
2024/01/21 06:19:40;;;;;;;10.85;5.35;;;;;;;;;;4999731;28;20090;-78
2024/01/21 06:22:05;;;;;;;11.27;5.20;;;;;;;;;;4982323;28;20108;-79
2024/01/21 06:24:34;;;;;;;11.68;5.28;;;;;;;;;;5000471;28;20401;-79
2024/01/21 06:26:59;;;;;;;8.95;4.72;;;;;;;;;;4982280;28;20398;-78
2024/01/21 06:29:25;;;;;;;11.88;5.10;;;;;;;;;;5001038;28;20027;-78
2024/01/21 06:31:50;;;;;;;9.63;4.60;;;;;;;;;;5002469;28;20026;-79
2024/01/21 06:34:16;;;;;;;11.13;5.00;;;;;;;;;;5001557;28;20026;-80
2024/01/21 06:36:41;;;;;;;10.23;4.90;;;;;;;;;;5001706;28;20112;-78
2024/01/21 06:39:07;;;;;;;12.77;5.50;;;;;;;;;;5002134;28;20160;-79
2024/01/21 06:41:32;;;;;;;10.85;4.70;;;;;;;;;;5000125;28;20022;-80
2024/01/21 06:43:57;;;;;;;9.40;4.78;;;;;;;;;;4984051;28;20057;-80
2024/01/21 06:46:22;;;;;;;6.82;3.78;;;;;;;;;;5001420;28;20034;-78
2024/01/21 06:48:47;;;;;;;7.78;3.97;;;;;;;;;;5001495;28;20026;-78
2024/01/21 06:51:29;;;;;;;9.23;3.65;;;;;;;;;;5001243;28;20105;-79
2024/01/21 06:53:55;;;;;;;8.27;4.15;;;;;;;;;;5000464;28;20482;-80
2024/01/21 06:56:20;;;;;;;9.63;4.38;;;;;;;;;;4983832;28;20022;-79
2024/01/21 06:58:45;;;;;;;7.88;3.58;;;;;;;;;;5001130;28;20436;-79
2024/01/21 07:01:10;;;;;;;7.47;3.50;;;;;;;;;;5002119;28;20465;-80
2024/01/21 07:03:36;;;;;;;8.07;3.42;;;;;;;;;;4984479;28;20482;-79
2024/01/21 07:06:01;;;;;;;7.40;3.85;;;;;;;;;;5001447;28;20397;-79
2024/01/21 07:08:26;;;;;;;9.00;4.10;;;;;;;;;;4985533;28;20026;-79
2024/01/21 07:10:51;;;;;;;6.10;3.53;;;;;;;;;;5002316;28;20022;-79
2024/01/21 07:13:16;;;;;;;8.25;4.18;;;;;;;;;;4985543;28;20033;-78
2024/01/21 07:15:42;;;;;;;9.40;3.83;;;;;;;;;;5001796;28;20023;-80
2024/01/21 07:18:09;;;;;;;6.70;3.30;;;;;;;;;;4981617;28;20028;-80
2024/01/21 07:20:34;;;;;;;9.98;3.90;;;;;;;;;;4981644;28;20713;-81
2024/01/21 07:22:59;;;;;;;6.78;3.85;;;;;;;;;;5000070;28;20038;-80
2024/01/21 07:25:24;;;;;;;9.30;3.65;;;;;;;;;;5000608;28;20055;-80
2024/01/21 07:27:50;;;;;;;7.38;3.35;;;;;;;;;;4998434;28;20030;-80
2024/01/21 07:30:15;;;;;;;8.52;4.03;;;;;;;;;;4998895;28;20026;-79
2024/01/21 07:32:41;;;;;;;6.20;3.45;;;;;;;;;;4998193;28;20077;-79
2024/01/21 07:35:08;;;;;;;8.55;3.50;;;;;;;;;;4996905;28;20026;-78
2024/01/21 07:37:34;;;;;;;6.38;3.30;;;;;;;;;;4999102;28;20026;-79
2024/01/21 07:39:59;;;;;;;7.10;3.08;;;;;;;;;;5003592;28;20544;-80
2024/01/21 07:42:25;;;;;;;7.90;3.30;;;;;;;;;;5002979;28;20078;-80
2024/01/21 07:44:50;;;;;;;8.48;3.67;;;;;;;;;;5004871;28;20034;-80
2024/01/21 07:47:15;;;;;;;6.07;3.00;;;;;;;;;;5003342;28;20058;-78
2024/01/21 07:49:40;;;;;;;9.75;3.80;;;;;;;;;;4986129;28;20046;-80
2024/01/21 07:52:06;;;;;;;4.85;2.72;;;;;;;;;;5004175;28;20072;-80
2024/01/21 07:54:31;;;;;;;8.55;3.55;;;;;;;;;;5003155;28;20026;-79
2024/01/21 07:56:56;;;;;;;6.50;3.30;;;;;;;;;;4984427;28;20030;-80
2024/01/21 07:59:22;;;;;;;9.88;3.45;;;;;;;;;;5002545;28;20503;-79
2024/01/21 08:01:47;;;;;;;10.88;3.42;;;;;;;;;;5003947;28;20106;-79
2024/01/21 08:04:13;;;;;;;7.32;3.80;;;;;;;;;;4987646;28;20034;-80
2024/01/21 08:06:38;;;;;;;8.80;3.50;;;;;;;;;;5003824;28;20061;-80
2024/01/21 08:09:03;;;;;;;8.75;3.72;;;;;;;;;;5002476;28;20120;-80
2024/01/21 08:11:28;;;;;;;8.40;3.83;;;;;;;;;;5002201;28;20026;-80
2024/01/21 08:13:54;;;;;;;9.82;4.00;;;;;;;;;;5003317;28;20037;-79
2024/01/21 08:16:19;;;;;;;8.25;3.92;;;;;;;;;;5002200;28;20022;-80
2024/01/21 08:18:44;;;;;;;11.52;4.70;;;;;;;;;;4999798;28;20033;-80
2024/01/21 08:21:09;;;;;;;10.68;5.00;;;;;;;;;;5001259;28;20061;-79
2024/01/21 08:23:35;;;;;;;8.80;4.05;;;;;;;;;;5004626;28;20037;-80
2024/01/21 08:26:02;;;;;;;11.07;3.83;;;;;;;;;;5005065;28;20030;-78
2024/01/21 08:28:28;;;;;;;8.80;4.05;;;;;;;;;;4983750;28;20026;-78
2024/01/21 08:30:53;;;;;;;7.40;3.38;;;;;;;;;;4987302;28;20033;-79
2024/01/21 08:33:19;;;;;;;6.70;3.63;;;;;;;;;;5003245;28;20036;-77
2024/01/21 08:35:44;;;;;;;7.85;4.00;;;;;;;;;;5004230;28;20094;-81
2024/01/21 08:38:09;;;;;;;10.25;4.15;;;;;;;;;;4979570;28;20061;-78
2024/01/21 08:40:36;;;;;;;7.85;3.97;;;;;;;;;;4996577;28;20413;-78
2024/01/21 08:43:02;;;;;;;9.32;3.88;;;;;;;;;;4997046;28;20073;-79
2024/01/21 08:45:27;;;;;;;7.13;3.97;;;;;;;;;;4997116;28;20026;-79
2024/01/21 08:47:53;;;;;;;6.40;3.33;;;;;;;;;;4997671;28;20049;-77
2024/01/21 08:50:18;;;;;;;9.43;4.05;;;;;;;;;;4996855;28;20022;-79
2024/01/21 08:52:43;;;;;;;6.85;3.72;;;;;;;;;;4997649;28;20026;-79
2024/01/21 08:55:08;;;;;;;8.98;4.03;;;;;;;;;;4980722;28;20049;-79
2024/01/21 08:57:34;;;;;;;7.60;3.90;;;;;;;;;;4982639;28;20065;-78
2024/01/21 08:59:59;;;;;;;9.68;4.03;;;;;;;;;;4996829;28;20120;-77
2024/01/21 09:02:24;;;;;;;9.43;3.95;;;;;;;;;;4995173;28;20105;-78
2024/01/21 09:04:49;;;;;;;8.75;4.20;;;;;;;;;;4978598;28;20034;-77
2024/01/21 09:07:15;;;;;;;9.05;4.50;;;;;;;;;;4995210;28;20030;-78
2024/01/21 09:09:40;;;;;;;9.75;3.67;;;;;;;;;;4994251;28;20053;-80
2024/01/21 09:12:07;;;;;;;11.02;3.78;;;;;;;;;;4996809;28;20023;-79
2024/01/21 09:14:33;;;;;;;8.18;3.78;;;;;;;;;;4979175;28;20054;-77
2024/01/21 09:16:58;;;;;;;9.88;3.83;;;;;;;;;;4997200;28;20018;-78
2024/01/21 09:19:23;;;;;;;7.97;3.53;;;;;;;;;;4997636;28;20038;-79
2024/01/21 09:21:48;;;;;;;6.75;3.55;;;;;;;;;;4998090;28;20044;-80
2024/01/21 09:24:14;;;;;;;7.97;4.30;;;;;;;;;;4998010;28;20089;-83
2024/01/21 09:26:40;;;;;;;6.30;3.70;;;;;;;;;;4996596;28;20030;-78
2024/01/21 09:29:05;;;;;;;8.63;3.60;;;;;;;;;;4996174;28;20058;-78
2024/01/21 09:31:30;;;;;;;6.55;3.33;;;;;;;;;;4999056;28;20030;-79
2024/01/21 09:33:58;;;;;;;5.85;3.40;;;;;;;;;;5000420;28;20038;-79
2024/01/21 09:36:23;;;;;;;7.78;3.70;;;;;;;;;;4982986;28;20412;-78
2024/01/21 09:38:51;;;;;;;9.40;4.05;;;;;;;;;;5000097;28;20026;-77
2024/01/21 09:41:35;;;;;;;7.97;3.60;;;;;;;;;;5000744;28;20026;-78
2024/01/21 09:44:00;;;;;;;5.90;3.25;;;;;;;;;;5000573;28;20030;-80
2024/01/21 09:46:27;;;;;;;3.38;2.00;;;;;;;;;;4983604;28;20121;-78
2024/01/21 09:48:54;;;;;;;8.68;3.65;;;;;;;;;;4999933;28;20033;-78
2024/01/21 09:51:20;;;;;;;5.35;3.47;;;;;;;;;;5004792;28;20018;-79
2024/01/21 09:53:46;;;;;;;7.45;3.28;;;;;;;;;;5002988;28;20026;-77
2024/01/21 09:56:12;;;;;;;6.55;3.38;;;;;;;;;;5003219;28;20037;-78
2024/01/21 09:58:45;;;;;;;5.03;2.17;;;;;;;;;;5006764;28;20034;-79
2024/01/21 10:01:17;;;;;;;5.03;2.47;;;;;;;;;;5004457;28;20489;-79
2024/01/21 10:03:43;;;;;;;8.02;3.83;;;;;;;;;;5000206;28;20038;-80
2024/01/21 10:06:08;;;;;;;8.02;3.28;;;;;;;;;;5000928;28;20026;-79
2024/01/21 10:08:40;;;;;;;10.70;3.67;;;;;;;;;;4983852;28;20117;-79
2024/01/21 10:11:07;;;;;;;7.20;2.88;;;;;;;;;;4983646;28;20457;-81
2024/01/21 10:13:38;;;;;;;5.60;3.13;;;;;;;;;;5000124;28;20489;-80
2024/01/21 10:16:04;;;;;;;5.57;2.95;;;;;;;;;;5002295;28;20026;-81
2024/01/21 10:18:29;;;;;;;5.80;2.92;;;;;;;;;;4985369;28;20029;-81
2024/01/21 10:21:05;;;;;;;4.95;2.47;;;;;;;;;;5001634;28;20039;-81
2024/01/21 10:23:30;;;;;;;6.95;3.17;;;;;;;;;;5000280;28;20037;-81
2024/01/21 10:25:56;;;;;;;5.93;2.60;;;;;;;;;;5000637;28;20027;-79
2024/01/21 10:28:22;;;;;;;5.93;3.13;;;;;;;;;;5000644;28;20090;-81
2024/01/21 10:30:50;;;;;;;6.30;2.95;;;;;;;;;;5000968;28;20033;-80
2024/01/21 10:33:15;;;;;;;6.25;3.03;;;;;;;;;;5000626;28;20023;-80
2024/01/21 10:35:41;;;;;;;6.43;3.40;;;;;;;;;;4998862;28;20034;-80
2024/01/21 10:38:11;;;;;;;8.00;3.38;;;;;;;;;;5000226;28;20476;-81
2024/01/21 10:40:43;;;;;;;5.93;3.22;;;;;;;;;;4999437;28;20453;-81
2024/01/21 10:43:11;;;;;;;7.57;3.17;;;;;;;;;;4999543;28;20034;-80
2024/01/21 10:45:46;;;;;;;11.02;3.80;;;;;;;;;;4983166;28;20037;-81
2024/01/21 10:48:16;;;;;;;6.82;3.22;;;;;;;;;;5002978;28;20034;-83
2024/01/21 10:50:44;;;;;;;5.63;2.75;;;;;;;;;;5001703;28;20022;-78
2024/01/21 10:53:13;;;;;;;4.70;2.80;;;;;;;;;;5006489;28;20121;-79
2024/01/21 10:55:39;;;;;;;5.35;2.92;;;;;;;;;;5005016;28;20054;-80
2024/01/21 10:58:06;;;;;;;6.75;2.70;;;;;;;;;;5002437;28;20026;-77
2024/01/21 11:00:31;;;;;;;4.72;2.80;;;;;;;;;;4997948;28;20490;-77
2024/01/21 11:03:30;;;;;;;4.25;2.08;;;;;;;;;;4996836;28;20035;-76
2024/01/21 11:06:03;;;;;;;4.60;2.28;;;;;;;;;;4998271;28;20048;-76
2024/01/21 11:08:29;;;;;;;5.00;2.42;;;;;;;;;;4995870;28;20037;-77
2024/01/21 11:11:12;;;;;;;5.20;2.58;;;;;;;;;;4997288;28;20030;-78
2024/01/21 11:13:41;;;;;;;4.50;2.13;;;;;;;;;;4996978;28;20041;-78
2024/01/21 11:16:10;;;;;;;8.93;2.42;;;;;;;;;;4998577;28;20069;-78
2024/01/21 11:18:35;;;;;;;12.20;3.00;;;;;;;;;;4998278;28;20508;-78
2024/01/21 11:21:01;;;;;;;5.93;2.55;;;;;;;;;;4998933;28;20027;-81
2024/01/21 11:23:27;;;;;;;5.35;2.90;;;;;;;;;;4997424;28;20109;-78
2024/01/21 11:25:53;;;;;;;5.13;2.83;;;;;;;;;;5001104;28;20489;-78
2024/01/21 11:28:29;;;;;;;5.20;3.03;;;;;;;;;;4980239;28;20033;-79
2024/01/21 11:31:21;;;;;;;5.47;2.80;;;;;;;;;;4998573;28;20026;-80
2024/01/21 11:34:03;;;;;;;6.07;2.80;;;;;;;;;;4985401;28;20045;-78
2024/01/21 11:36:28;;;;;;;7.32;2.50;;;;;;;;;;4999731;28;20030;-78
2024/01/21 11:38:54;;;;;;;4.50;2.75;;;;;;;;;;5001886;28;20113;-78
2024/01/21 11:41:23;;;;;;;5.07;2.33;;;;;;;;;;5002367;28;20042;-78
2024/01/21 11:43:49;;;;;;;5.03;2.50;;;;;;;;;;4999544;28;20077;-79
2024/01/21 11:46:14;;;;;;;4.57;2.53;;;;;;;;;;5001164;28;20026;-77
2024/01/21 11:48:39;;;;;;;2.42;1.60;;;;;;;;;;5000928;28;20026;-78
2024/01/21 11:51:04;;;;;;;4.82;2.40;;;;;;;;;;5001721;28;20094;-78
2024/01/21 11:53:30;;;;;;;8.63;2.37;;;;;;;;;;5001203;28;20033;-78
2024/01/21 11:55:55;;;;;;;5.90;2.70;;;;;;;;;;5001119;28;20251;-78
2024/01/21 11:58:20;;;;;;;7.93;3.30;;;;;;;;;;4997178;28;20352;-78
2024/01/21 12:00:46;;;;;;;9.07;3.03;;;;;;;;;;4996463;28;20029;-78
2024/01/21 12:03:12;;;;;;;6.28;2.83;;;;;;;;;;4998442;28;20489;-78
2024/01/21 12:05:39;;;;;;;5.55;2.50;;;;;;;;;;4999538;28;20056;-78
2024/01/21 12:08:05;;;;;;;8.18;3.30;;;;;;;;;;4996679;28;20481;-78
2024/01/21 12:10:30;;;;;;;5.82;3.35;;;;;;;;;;4998648;28;20034;-77
2024/01/21 12:12:56;;;;;;;5.15;2.75;;;;;;;;;;4999942;28;20549;-78
2024/01/21 12:15:22;;;;;;;4.50;2.15;;;;;;;;;;4996889;28;20027;-78
2024/01/21 12:17:54;;;;;;;6.07;2.63;;;;;;;;;;4998801;28;20037;-78
2024/01/21 12:20:19;;;;;;;10.68;3.60;;;;;;;;;;4980563;28;20248;-78
2024/01/21 12:22:45;;;;;;;12.05;3.50;;;;;;;;;;4981497;28;20046;-78
2024/01/21 12:25:11;;;;;;;6.15;3.22;;;;;;;;;;4997766;28;20481;-78
2024/01/21 12:27:40;;;;;;;5.85;3.20;;;;;;;;;;5000069;28;20482;-77
2024/01/21 12:30:11;;;;;;;6.03;3.10;;;;;;;;;;4998710;28;20081;-78
2024/01/21 12:32:36;;;;;;;5.78;2.83;;;;;;;;;;5000008;28;20026;-78
2024/01/21 12:35:01;;;;;;;6.00;3.08;;;;;;;;;;4998213;28;20068;-79
2024/01/21 12:37:27;;;;;;;6.22;2.50;;;;;;;;;;4998092;28;20492;-78
2024/01/21 12:39:52;;;;;;;3.55;2.30;;;;;;;;;;4997696;28;20543;-78
2024/01/21 12:42:17;;;;;;;5.60;2.93;;;;;;;;;;4997956;28;20033;-77
2024/01/21 12:44:42;;;;;;;5.43;3.03;;;;;;;;;;4997687;28;20256;-77
2024/01/21 12:47:07;;;;;;;4.13;2.27;;;;;;;;;;4998673;28;20260;-78
2024/01/21 12:49:33;;;;;;;5.03;2.43;;;;;;;;;;4999426;28;20296;-77
2024/01/21 12:51:58;;;;;;;6.90;3.03;;;;;;;;;;4999717;28;20330;-77
2024/01/21 12:54:23;;;;;;;5.80;2.23;;;;;;;;;;4998559;28;20025;-78
2024/01/21 12:56:48;;;;;;;4.70;2.50;;;;;;;;;;4998582;28;20260;-78
2024/01/21 12:59:14;;;;;;;5.60;2.88;;;;;;;;;;4982378;28;20293;-77
2024/01/21 13:01:40;;;;;;;6.95;3.00;;;;;;;;;;4997781;28;20041;-77
2024/01/21 13:04:05;;;;;;;5.70;2.83;;;;;;;;;;4998709;28;20050;-78
2024/01/21 13:06:30;;;;;;;4.93;2.73;;;;;;;;;;5000863;28;20030;-78
2024/01/21 13:08:55;;;;;;;10.90;3.05;;;;;;;;;;4985105;28;20306;-78
2024/01/21 13:11:21;;;;;;;6.03;2.80;;;;;;;;;;5001220;28;20454;-78
2024/01/21 13:13:46;;;;;;;6.32;2.80;;;;;;;;;;5001753;28;20026;-79
2024/01/21 13:16:11;;;;;;;4.57;2.13;;;;;;;;;;5002826;28;20038;-79
2024/01/21 13:18:37;;;;;;;6.45;3.22;;;;;;;;;;4986450;28;20256;-78
2024/01/21 13:21:03;;;;;;;7.95;2.65;;;;;;;;;;5002670;28;20510;-78
2024/01/21 13:23:28;;;;;;;4.90;2.70;;;;;;;;;;4983774;28;20042;-78
2024/01/21 13:25:53;;;;;;;6.97;2.67;;;;;;;;;;5001910;28;20393;-78
2024/01/21 13:30:45;;;;;;;6.43;2.50;;;;;;;;;;5002731;28;20037;-78
2024/01/21 13:33:11;;;;;;;7.97;2.60;;;;;;;;;;5002474;28;20259;-79
2024/01/21 13:35:37;;;;;;;6.75;2.55;;;;;;;;;;5002182;28;20042;-77
2024/01/21 13:38:04;;;;;;;5.65;2.85;;;;;;;;;;4999366;28;20559;-79
2024/01/21 13:40:30;;;;;;;4.88;2.55;;;;;;;;;;5000345;28;20022;-78
2024/01/21 13:42:55;;;;;;;8.88;3.70;;;;;;;;;;5001520;28;20029;-78
2024/01/21 13:45:20;;;;;;;6.10;3.00;;;;;;;;;;5005123;28;20047;-78
2024/01/21 13:47:46;;;;;;;7.70;3.40;;;;;;;;;;5001943;28;20030;-78
2024/01/21 13:50:11;;;;;;;4.90;2.55;;;;;;;;;;5004721;28;20271;-78
2024/01/21 13:52:37;;;;;;;6.38;3.03;;;;;;;;;;5003812;28;20556;-78
2024/01/21 13:55:05;;;;;;;5.57;2.80;;;;;;;;;;5000853;28;20030;-78
2024/01/21 13:57:30;;;;;;;6.28;2.70;;;;;;;;;;4999793;28;20038;-77
2024/01/21 13:59:55;;;;;;;5.82;2.40;;;;;;;;;;4999667;28;20441;-77
2024/01/21 14:02:20;;;;;;;9.40;3.03;;;;;;;;;;4999568;28;20398;-78
2024/01/21 14:04:46;;;;;;;5.07;2.70;;;;;;;;;;4999259;28;20731;-78
2024/01/21 14:07:12;;;;;;;5.05;2.85;;;;;;;;;;4981593;28;20092;-79
2024/01/21 14:09:37;;;;;;;3.60;1.90;;;;;;;;;;5004106;28;20026;-78
2024/01/21 14:12:02;;;;;;;6.47;3.10;;;;;;;;;;4982676;28;20023;-77
2024/01/21 14:14:28;;;;;;;4.50;1.83;;;;;;;;;;5002767;28;20073;-77
2024/01/21 14:16:53;;;;;;;7.35;3.08;;;;;;;;;;4999986;28;20033;-78
2024/01/21 14:19:18;;;;;;;5.43;2.97;;;;;;;;;;5003104;28;20117;-77
2024/01/21 14:21:43;;;;;;;3.80;2.37;;;;;;;;;;4999071;28;20334;-77
2024/01/21 14:24:08;;;;;;;7.50;3.15;;;;;;;;;;5000857;28;20651;-77
2024/01/21 14:26:38;;;;;;;3.95;1.95;;;;;;;;;;4999299;28;20060;-78
2024/01/21 14:29:12;;;;;;;5.43;2.10;;;;;;;;;;4980723;28;20058;-77
2024/01/21 14:31:39;;;;;;;4.25;2.65;;;;;;;;;;4997879;28;20117;-78
2024/01/21 14:34:04;;;;;;;8.80;3.25;;;;;;;;;;4999734;28;20035;-77